Orbital elements of MOST
| Launched | 29 June 2003 |
| Flight ended | – |
| Launch site | Plesetsk Missile and Space Complex, Russia |
| Owner | Canada |
| NORAD ID | 27843 |
| Date fetched |
Epoch osculation |
Inc. [°] |
Ecc. | RA asc node [hr] |
Arg Peri. [°] |
Mean anom [°] |
Mean motion [rev/day] |
Abs. mag |
| Date fetched |
Epoch osculation |
Inc. [°] |
Ecc. | RA asc node [hr] |
Arg Peri. [°] |
Mean anom [°] |
Mean motion [rev/day] |
Abs. mag |
| 2026 May 08 17:57 | 2026 May 08 07:06:35 | 98.7057 | 0.00101 | 9.1052 | 14.5062 | 345.6403 | 14.21314 | – |
| 2026 May 07 17:58 | 2026 May 07 00:41:53 | 98.7058 | 0.00102 | 9.0219 | 17.9976 | 345.6403 | 14.21314 | – |
| 2026 May 06 17:57 | 2026 May 06 11:10:55 | 98.7059 | 0.00102 | 8.9848 | 19.5663 | 345.6403 | 14.21314 | – |
| 2026 May 05 17:57 | 2026 May 05 11:31:42 | 98.7059 | 0.00102 | 8.9200 | 22.2611 | 345.6403 | 14.21314 | – |
| 2026 May 04 17:57 | 2026 May 04 06:48:23 | 98.7058 | 0.00103 | 8.8414 | 25.5283 | 345.6403 | 14.21314 | – |
| 2026 May 03 17:57 | 2026 May 03 12:13:18 | 98.7058 | 0.00103 | 8.7905 | 27.6332 | 345.6403 | 14.21314 | – |
| 2026 May 02 17:57 | 2026 May 02 10:52:43 | 98.7059 | 0.00104 | 8.7210 | 30.5268 | 345.6403 | 14.21314 | – |
| 2026 May 01 17:56 | 2026 May 01 12:54:53 | 98.7059 | 0.00104 | 8.6609 | 32.9980 | 345.6403 | 14.21314 | – |
| 2026 Apr 30 17:56 | 2026 Apr 29 23:44:42 | 98.7061 | 0.00105 | 8.5591 | 37.2007 | 345.6403 | 14.21314 | – |
| 2026 Apr 29 17:57 | 2026 Apr 29 11:55:06 | 98.7062 | 0.00105 | 8.5267 | 38.5476 | 345.6403 | 14.21314 | – |
| 2026 Apr 28 17:56 | 2026 Apr 28 10:34:31 | 98.7063 | 0.00106 | 8.4572 | 41.3923 | 345.6403 | 14.21314 | – |
| 2026 Apr 27 17:58 | 2026 Apr 27 07:32:34 | 98.7064 | 0.00106 | 8.3832 | 44.4012 | 345.6403 | 14.21314 | – |
| 2026 Apr 26 17:58 | 2026 Apr 25 21:45:08 | 98.7064 | 0.00107 | 8.2906 | 48.1551 | 345.6403 | 14.21314 | – |
| 2026 Apr 25 17:58 | 2026 Apr 25 11:36:54 | 98.7065 | 0.00107 | 8.2628 | 49.2960 | 345.6403 | 14.21314 | – |
| 2026 Apr 24 17:59 | 2026 Apr 24 00:08:05 | 98.7067 | 0.00107 | 8.1656 | 53.2545 | 345.6403 | 14.21314 | – |
| 2026 Apr 23 17:57 | 2026 Apr 23 00:28:52 | 98.7068 | 0.00108 | 8.1009 | 55.8416 | 345.6403 | 14.21314 | – |
| 2026 Apr 22 17:57 | 2026 Apr 22 00:49:40 | 98.7069 | 0.00108 | 8.0360 | 58.4130 | 345.6403 | 14.21314 | – |
| 2026 Apr 21 17:57 | 2026 Apr 21 06:14:34 | 98.7070 | 0.00108 | 7.9851 | 60.4775 | 345.6403 | 14.21314 | – |
| 2026 Apr 20 17:57 | 2026 Apr 20 06:35:22 | 98.7071 | 0.00109 | 7.9203 | 63.0309 | 345.6403 | 14.21314 | – |
| 2026 Apr 19 17:58 | 2026 Apr 19 12:00:16 | 98.7071 | 0.00109 | 7.8694 | 65.0406 | 345.6403 | 14.21314 | – |
| 2026 Apr 18 17:56 | 2026 Apr 18 00:31:27 | 98.7071 | 0.00109 | 7.7722 | 68.8769 | 345.6403 | 14.21314 | – |
| 2026 Apr 16 17:57 | 2026 Apr 15 23:31:40 | 98.7071 | 0.00110 | 7.6380 | 74.1629 | 345.6403 | 14.21314 | – |
| 2026 Apr 14 17:57 | 2026 Apr 14 06:58:44 | 98.7072 | 0.00110 | 7.5269 | 78.5549 | 345.6403 | 14.21314 | – |
| 2026 Apr 13 17:57 | 2026 Apr 13 07:19:31 | 98.7072 | 0.00110 | 7.4621 | 81.1087 | 345.6403 | 14.21314 | – |
| 2026 Apr 12 17:57 | 2026 Apr 12 11:03:03 | 98.7072 | 0.00110 | 7.4066 | 83.3433 | 345.6403 | 14.21314 | – |
| 2026 Apr 11 17:57 | 2026 Apr 11 11:23:50 | 98.7073 | 0.00110 | 7.3417 | 85.8857 | 345.6403 | 14.21314 | – |